sensor_id;sensor_type;location;lat;lon;timestamp;P1;durP1;ratioP1;P2;durP2;ratioP2
10659;SDS011;5378;53.206;13.316;2023-12-20T00:01:09;1.07;;;0.80;;
10659;SDS011;5378;53.206;13.316;2023-12-20T00:03:56;3.33;;;0.57;;
10659;SDS011;5378;53.206;13.316;2023-12-20T00:06:43;1.93;;;0.57;;
10659;SDS011;5378;53.206;13.316;2023-12-20T00:09:30;0.97;;;0.70;;
10659;SDS011;5378;53.206;13.316;2023-12-20T00:12:17;1.10;;;0.90;;
10659;SDS011;5378;53.206;13.316;2023-12-20T00:15:04;0.87;;;0.57;;
10659;SDS011;5378;53.206;13.316;2023-12-20T00:17:54;1.43;;;0.97;;
10659;SDS011;5378;53.206;13.316;2023-12-20T00:20:41;2.03;;;0.73;;
10659;SDS011;5378;53.206;13.316;2023-12-20T00:23:29;1.07;;;0.63;;
10659;SDS011;5378;53.206;13.316;2023-12-20T00:26:16;1.30;;;0.57;;
10659;SDS011;5378;53.206;13.316;2023-12-20T00:29:03;0.67;;;0.40;;
10659;SDS011;5378;53.206;13.316;2023-12-20T00:31:50;1.17;;;0.80;;
10659;SDS011;5378;53.206;13.316;2023-12-20T00:34:38;1.30;;;0.70;;
10659;SDS011;5378;53.206;13.316;2023-12-20T00:37:25;3.40;;;0.60;;
10659;SDS011;5378;53.206;13.316;2023-12-20T00:40:12;0.80;;;0.40;;
10659;SDS011;5378;53.206;13.316;2023-12-20T00:42:59;3.00;;;0.50;;
10659;SDS011;5378;53.206;13.316;2023-12-20T00:45:46;1.00;;;0.63;;
10659;SDS011;5378;53.206;13.316;2023-12-20T00:48:34;0.90;;;0.50;;
10659;SDS011;5378;53.206;13.316;2023-12-20T00:51:22;0.90;;;0.60;;
10659;SDS011;5378;53.206;13.316;2023-12-20T00:54:10;1.40;;;0.50;;
10659;SDS011;5378;53.206;13.316;2023-12-20T00:56:57;0.90;;;0.67;;
10659;SDS011;5378;53.206;13.316;2023-12-20T00:59:45;1.27;;;0.40;;
10659;SDS011;5378;53.206;13.316;2023-12-20T01:02:32;1.73;;;0.50;;
10659;SDS011;5378;53.206;13.316;2023-12-20T01:05:19;1.07;;;0.80;;
10659;SDS011;5378;53.206;13.316;2023-12-20T01:08:09;0.80;;;0.57;;
10659;SDS011;5378;53.206;13.316;2023-12-20T01:10:57;2.07;;;0.70;;
10659;SDS011;5378;53.206;13.316;2023-12-20T01:13:43;0.60;;;0.40;;
10659;SDS011;5378;53.206;13.316;2023-12-20T01:16:30;4.53;;;0.87;;
10659;SDS011;5378;53.206;13.316;2023-12-20T01:19:18;2.20;;;0.47;;
10659;SDS011;5378;53.206;13.316;2023-12-20T01:22:04;1.27;;;0.87;;
10659;SDS011;5378;53.206;13.316;2023-12-20T01:24:53;4.40;;;0.70;;
10659;SDS011;5378;53.206;13.316;2023-12-20T01:27:40;1.00;;;0.70;;
10659;SDS011;5378;53.206;13.316;2023-12-20T01:30:27;1.10;;;0.73;;
10659;SDS011;5378;53.206;13.316;2023-12-20T01:33:14;2.50;;;0.60;;
10659;SDS011;5378;53.206;13.316;2023-12-20T01:36:01;1.00;;;0.90;;
10659;SDS011;5378;53.206;13.316;2023-12-20T01:38:49;1.83;;;0.97;;
10659;SDS011;5378;53.206;13.316;2023-12-20T01:41:37;1.30;;;0.70;;
10659;SDS011;5378;53.206;13.316;2023-12-20T01:44:25;0.90;;;0.60;;
10659;SDS011;5378;53.206;13.316;2023-12-20T01:47:12;4.50;;;0.73;;
10659;SDS011;5378;53.206;13.316;2023-12-20T01:50:00;9.00;;;0.97;;
10659;SDS011;5378;53.206;13.316;2023-12-20T01:52:49;7.10;;;1.20;;
10659;SDS011;5378;53.206;13.316;2023-12-20T01:55:38;1.83;;;0.80;;
10659;SDS011;5378;53.206;13.316;2023-12-20T01:58:28;1.03;;;0.40;;
10659;SDS011;5378;53.206;13.316;2023-12-20T02:01:16;1.20;;;0.50;;
10659;SDS011;5378;53.206;13.316;2023-12-20T02:04:04;4.63;;;0.87;;
10659;SDS011;5378;53.206;13.316;2023-12-20T02:06:52;1.33;;;0.60;;
10659;SDS011;5378;53.206;13.316;2023-12-20T02:09:39;1.30;;;0.50;;
10659;SDS011;5378;53.206;13.316;2023-12-20T02:12:27;1.10;;;0.53;;
10659;SDS011;5378;53.206;13.316;2023-12-20T02:15:15;1.00;;;0.40;;
10659;SDS011;5378;53.206;13.316;2023-12-20T02:18:03;4.20;;;1.10;;
10659;SDS011;5378;53.206;13.316;2023-12-20T02:20:51;0.80;;;0.50;;
10659;SDS011;5378;53.206;13.316;2023-12-20T02:23:40;4.10;;;0.70;;
10659;SDS011;5378;53.206;13.316;2023-12-20T02:26:27;1.10;;;0.60;;
10659;SDS011;5378;53.206;13.316;2023-12-20T02:29:14;2.03;;;0.60;;
10659;SDS011;5378;53.206;13.316;2023-12-20T02:32:01;1.93;;;0.70;;
10659;SDS011;5378;53.206;13.316;2023-12-20T02:34:49;2.10;;;0.80;;
10659;SDS011;5378;53.206;13.316;2023-12-20T02:37:36;7.00;;;1.27;;
10659;SDS011;5378;53.206;13.316;2023-12-20T02:40:25;8.87;;;1.27;;
10659;SDS011;5378;53.206;13.316;2023-12-20T02:43:12;4.03;;;1.10;;
10659;SDS011;5378;53.206;13.316;2023-12-20T02:45:59;1.67;;;1.30;;
10659;SDS011;5378;53.206;13.316;2023-12-20T02:48:46;1.53;;;0.90;;
10659;SDS011;5378;53.206;13.316;2023-12-20T02:51:33;2.20;;;1.07;;
10659;SDS011;5378;53.206;13.316;2023-12-20T02:54:23;5.93;;;1.23;;
10659;SDS011;5378;53.206;13.316;2023-12-20T02:57:12;10.50;;;0.80;;
10659;SDS011;5378;53.206;13.316;2023-12-20T02:59:59;1.27;;;0.83;;
10659;SDS011;5378;53.206;13.316;2023-12-20T03:02:46;8.93;;;1.23;;
10659;SDS011;5378;53.206;13.316;2023-12-20T03:05:33;7.87;;;1.07;;
10659;SDS011;5378;53.206;13.316;2023-12-20T03:08:21;7.30;;;1.10;;
10659;SDS011;5378;53.206;13.316;2023-12-20T03:11:08;5.07;;;1.00;;
10659;SDS011;5378;53.206;13.316;2023-12-20T03:13:56;1.70;;;1.13;;
10659;SDS011;5378;53.206;13.316;2023-12-20T03:16:46;3.43;;;0.73;;
10659;SDS011;5378;53.206;13.316;2023-12-20T03:19:33;6.90;;;1.27;;
10659;SDS011;5378;53.206;13.316;2023-12-20T03:22:21;3.20;;;1.03;;
10659;SDS011;5378;53.206;13.316;2023-12-20T03:25:08;4.23;;;1.20;;
10659;SDS011;5378;53.206;13.316;2023-12-20T03:27:55;1.50;;;0.73;;
10659;SDS011;5378;53.206;13.316;2023-12-20T03:30:43;1.77;;;0.80;;
10659;SDS011;5378;53.206;13.316;2023-12-20T03:33:30;7.93;;;1.10;;
10659;SDS011;5378;53.206;13.316;2023-12-20T03:36:18;2.87;;;1.27;;
10659;SDS011;5378;53.206;13.316;2023-12-20T03:39:05;1.10;;;0.73;;
10659;SDS011;5378;53.206;13.316;2023-12-20T03:41:52;3.23;;;1.33;;
10659;SDS011;5378;53.206;13.316;2023-12-20T03:44:39;1.53;;;0.87;;
10659;SDS011;5378;53.206;13.316;2023-12-20T03:47:28;8.73;;;1.30;;
10659;SDS011;5378;53.206;13.316;2023-12-20T03:50:15;4.80;;;0.93;;
10659;SDS011;5378;53.206;13.316;2023-12-20T03:53:02;5.77;;;1.33;;
10659;SDS011;5378;53.206;13.316;2023-12-20T03:55:50;11.00;;;0.70;;
10659;SDS011;5378;53.206;13.316;2023-12-20T03:58:37;4.10;;;1.03;;
10659;SDS011;5378;53.206;13.316;2023-12-20T04:01:24;8.07;;;1.30;;
10659;SDS011;5378;53.206;13.316;2023-12-20T04:04:12;9.70;;;1.87;;
10659;SDS011;5378;53.206;13.316;2023-12-20T04:07:00;9.73;;;1.30;;
10659;SDS011;5378;53.206;13.316;2023-12-20T04:09:47;22.70;;;1.63;;
10659;SDS011;5378;53.206;13.316;2023-12-20T04:12:34;4.93;;;0.93;;
10659;SDS011;5378;53.206;13.316;2023-12-20T04:15:22;4.80;;;1.10;;
10659;SDS011;5378;53.206;13.316;2023-12-20T04:18:09;1.83;;;1.20;;
10659;SDS011;5378;53.206;13.316;2023-12-20T04:20:57;7.50;;;1.23;;
10659;SDS011;5378;53.206;13.316;2023-12-20T04:23:45;2.30;;;0.83;;
10659;SDS011;5378;53.206;13.316;2023-12-20T04:26:32;5.10;;;1.17;;
10659;SDS011;5378;53.206;13.316;2023-12-20T04:29:19;4.07;;;1.47;;
10659;SDS011;5378;53.206;13.316;2023-12-20T04:32:06;3.57;;;1.33;;
10659;SDS011;5378;53.206;13.316;2023-12-20T04:34:53;7.23;;;1.40;;
10659;SDS011;5378;53.206;13.316;2023-12-20T04:37:41;5.10;;;1.50;;
10659;SDS011;5378;53.206;13.316;2023-12-20T04:40:29;4.80;;;1.90;;
10659;SDS011;5378;53.206;13.316;2023-12-20T04:43:16;7.43;;;2.10;;
10659;SDS011;5378;53.206;13.316;2023-12-20T04:46:03;6.93;;;1.33;;
10659;SDS011;5378;53.206;13.316;2023-12-20T04:48:51;11.20;;;1.67;;
10659;SDS011;5378;53.206;13.316;2023-12-20T04:51:38;4.50;;;1.80;;
10659;SDS011;5378;53.206;13.316;2023-12-20T04:54:26;8.33;;;2.17;;
10659;SDS011;5378;53.206;13.316;2023-12-20T04:57:13;6.47;;;1.97;;
10659;SDS011;5378;53.206;13.316;2023-12-20T05:00:01;7.40;;;2.27;;
10659;SDS011;5378;53.206;13.316;2023-12-20T05:02:49;10.77;;;2.30;;
10659;SDS011;5378;53.206;13.316;2023-12-20T05:05:36;5.03;;;2.30;;
10659;SDS011;5378;53.206;13.316;2023-12-20T05:08:23;21.17;;;2.97;;
10659;SDS011;5378;53.206;13.316;2023-12-20T05:11:12;22.27;;;2.33;;
10659;SDS011;5378;53.206;13.316;2023-12-20T05:14:00;3.07;;;2.00;;
10659;SDS011;5378;53.206;13.316;2023-12-20T05:16:47;7.60;;;1.83;;
10659;SDS011;5378;53.206;13.316;2023-12-20T05:19:34;4.30;;;2.43;;
10659;SDS011;5378;53.206;13.316;2023-12-20T05:22:21;9.00;;;2.23;;
10659;SDS011;5378;53.206;13.316;2023-12-20T05:25:08;9.13;;;2.70;;
10659;SDS011;5378;53.206;13.316;2023-12-20T05:27:57;8.60;;;2.27;;
10659;SDS011;5378;53.206;13.316;2023-12-20T05:30:44;3.50;;;1.60;;
10659;SDS011;5378;53.206;13.316;2023-12-20T05:33:31;16.83;;;1.80;;
10659;SDS011;5378;53.206;13.316;2023-12-20T05:36:18;5.27;;;1.70;;
10659;SDS011;5378;53.206;13.316;2023-12-20T05:39:06;9.60;;;2.03;;
10659;SDS011;5378;53.206;13.316;2023-12-20T05:41:53;8.10;;;1.43;;
10659;SDS011;5378;53.206;13.316;2023-12-20T05:44:42;13.00;;;1.50;;
10659;SDS011;5378;53.206;13.316;2023-12-20T05:47:29;6.50;;;1.20;;
10659;SDS011;5378;53.206;13.316;2023-12-20T05:50:16;2.40;;;0.80;;
10659;SDS011;5378;53.206;13.316;2023-12-20T05:53:03;8.03;;;1.13;;
10659;SDS011;5378;53.206;13.316;2023-12-20T05:55:50;5.17;;;1.37;;
10659;SDS011;5378;53.206;13.316;2023-12-20T05:58:38;10.70;;;1.33;;
10659;SDS011;5378;53.206;13.316;2023-12-20T06:01:26;4.40;;;1.37;;
10659;SDS011;5378;53.206;13.316;2023-12-20T06:04:13;4.07;;;1.50;;
10659;SDS011;5378;53.206;13.316;2023-12-20T06:07:00;9.23;;;2.30;;
10659;SDS011;5378;53.206;13.316;2023-12-20T06:09:49;16.80;;;2.13;;
10659;SDS011;5378;53.206;13.316;2023-12-20T06:12:36;12.67;;;1.30;;
10659;SDS011;5378;53.206;13.316;2023-12-20T06:15:24;6.67;;;1.37;;
10659;SDS011;5378;53.206;13.316;2023-12-20T06:18:12;26.23;;;1.87;;
10659;SDS011;5378;53.206;13.316;2023-12-20T06:20:59;17.60;;;2.40;;
10659;SDS011;5378;53.206;13.316;2023-12-20T06:23:47;6.40;;;1.93;;
10659;SDS011;5378;53.206;13.316;2023-12-20T06:26:34;16.60;;;1.77;;
10659;SDS011;5378;53.206;13.316;2023-12-20T06:29:22;9.73;;;2.00;;
10659;SDS011;5378;53.206;13.316;2023-12-20T06:32:09;9.63;;;1.37;;
10659;SDS011;5378;53.206;13.316;2023-12-20T06:34:57;22.33;;;1.97;;
10659;SDS011;5378;53.206;13.316;2023-12-20T06:37:44;6.43;;;1.90;;
10659;SDS011;5378;53.206;13.316;2023-12-20T06:40:31;9.43;;;1.63;;
10659;SDS011;5378;53.206;13.316;2023-12-20T06:43:18;7.17;;;2.00;;
10659;SDS011;5378;53.206;13.316;2023-12-20T06:46:08;3.27;;;1.73;;
10659;SDS011;5378;53.206;13.316;2023-12-20T06:48:56;7.70;;;2.30;;
10659;SDS011;5378;53.206;13.316;2023-12-20T06:51:44;13.70;;;1.73;;
10659;SDS011;5378;53.206;13.316;2023-12-20T06:54:32;7.60;;;1.60;;
10659;SDS011;5378;53.206;13.316;2023-12-20T06:57:19;8.53;;;2.43;;
10659;SDS011;5378;53.206;13.316;2023-12-20T07:00:07;14.60;;;1.50;;
10659;SDS011;5378;53.206;13.316;2023-12-20T07:02:55;7.78;;;1.75;;
10659;SDS011;5378;53.206;13.316;2023-12-20T07:05:42;7.47;;;1.60;;
10659;SDS011;5378;53.206;13.316;2023-12-20T07:08:30;9.70;;;1.90;;
10659;SDS011;5378;53.206;13.316;2023-12-20T07:11:17;2.60;;;1.00;;
10659;SDS011;5378;53.206;13.316;2023-12-20T07:14:04;4.03;;;1.30;;
10659;SDS011;5378;53.206;13.316;2023-12-20T07:16:51;6.17;;;1.50;;
10659;SDS011;5378;53.206;13.316;2023-12-20T07:19:38;11.03;;;1.93;;
10659;SDS011;5378;53.206;13.316;2023-12-20T07:22:25;6.93;;;1.60;;
10659;SDS011;5378;53.206;13.316;2023-12-20T07:25:14;7.77;;;1.00;;
10659;SDS011;5378;53.206;13.316;2023-12-20T07:28:02;4.83;;;1.77;;
10659;SDS011;5378;53.206;13.316;2023-12-20T07:30:49;4.67;;;1.90;;
10659;SDS011;5378;53.206;13.316;2023-12-20T07:33:36;8.00;;;2.00;;
10659;SDS011;5378;53.206;13.316;2023-12-20T07:36:23;6.07;;;1.87;;
10659;SDS011;5378;53.206;13.316;2023-12-20T07:39:10;9.00;;;1.70;;
10659;SDS011;5378;53.206;13.316;2023-12-20T07:41:59;3.37;;;1.27;;
10659;SDS011;5378;53.206;13.316;2023-12-20T07:44:46;7.27;;;1.80;;
10659;SDS011;5378;53.206;13.316;2023-12-20T07:47:33;11.43;;;1.93;;
10659;SDS011;5378;53.206;13.316;2023-12-20T07:50:20;6.37;;;1.60;;
10659;SDS011;5378;53.206;13.316;2023-12-20T07:53:07;6.13;;;1.67;;
10659;SDS011;5378;53.206;13.316;2023-12-20T07:55:54;7.53;;;1.23;;
10659;SDS011;5378;53.206;13.316;2023-12-20T07:58:43;7.50;;;1.37;;
10659;SDS011;5378;53.206;13.316;2023-12-20T08:01:34;2.50;;;1.43;;
10659;SDS011;5378;53.206;13.316;2023-12-20T08:04:21;10.20;;;2.37;;
10659;SDS011;5378;53.206;13.316;2023-12-20T08:07:08;16.90;;;1.67;;
10659;SDS011;5378;53.206;13.316;2023-12-20T08:09:56;3.30;;;1.60;;
10659;SDS011;5378;53.206;13.316;2023-12-20T08:12:43;8.53;;;2.00;;
10659;SDS011;5378;53.206;13.316;2023-12-20T08:15:31;7.00;;;1.93;;
10659;SDS011;5378;53.206;13.316;2023-12-20T08:18:18;8.40;;;2.10;;
10659;SDS011;5378;53.206;13.316;2023-12-20T08:21:05;9.30;;;2.20;;
10659;SDS011;5378;53.206;13.316;2023-12-20T08:23:54;7.90;;;2.10;;
10659;SDS011;5378;53.206;13.316;2023-12-20T08:26:41;10.20;;;2.07;;
10659;SDS011;5378;53.206;13.316;2023-12-20T08:29:28;14.20;;;3.40;;
10659;SDS011;5378;53.206;13.316;2023-12-20T08:32:16;4.70;;;3.50;;
10659;SDS011;5378;53.206;13.316;2023-12-20T08:35:04;5.07;;;2.40;;
10659;SDS011;5378;53.206;13.316;2023-12-20T08:37:51;5.50;;;2.20;;
10659;SDS011;5378;53.206;13.316;2023-12-20T08:40:38;8.10;;;1.60;;
10659;SDS011;5378;53.206;13.316;2023-12-20T08:43:25;3.87;;;2.10;;
10659;SDS011;5378;53.206;13.316;2023-12-20T08:46:13;11.30;;;3.10;;
10659;SDS011;5378;53.206;13.316;2023-12-20T08:49:02;14.40;;;2.40;;
10659;SDS011;5378;53.206;13.316;2023-12-20T08:51:50;13.63;;;2.60;;
10659;SDS011;5378;53.206;13.316;2023-12-20T08:54:37;9.77;;;2.57;;
10659;SDS011;5378;53.206;13.316;2023-12-20T08:57:24;7.10;;;2.23;;
10659;SDS011;5378;53.206;13.316;2023-12-20T09:00:11;7.67;;;2.73;;
10659;SDS011;5378;53.206;13.316;2023-12-20T09:02:59;6.93;;;2.60;;
10659;SDS011;5378;53.206;13.316;2023-12-20T09:05:47;4.80;;;2.07;;
10659;SDS011;5378;53.206;13.316;2023-12-20T09:08:35;10.60;;;1.43;;
10659;SDS011;5378;53.206;13.316;2023-12-20T09:11:22;14.97;;;2.00;;
10659;SDS011;5378;53.206;13.316;2023-12-20T09:14:09;17.77;;;2.60;;
10659;SDS011;5378;53.206;13.316;2023-12-20T09:16:56;15.50;;;3.70;;
10659;SDS011;5378;53.206;13.316;2023-12-20T09:19:44;11.50;;;2.60;;
10659;SDS011;5378;53.206;13.316;2023-12-20T09:22:32;7.67;;;2.80;;
10659;SDS011;5378;53.206;13.316;2023-12-20T09:25:19;17.00;;;3.00;;
10659;SDS011;5378;53.206;13.316;2023-12-20T09:28:08;16.70;;;3.73;;
10659;SDS011;5378;53.206;13.316;2023-12-20T09:30:56;8.63;;;2.17;;
10659;SDS011;5378;53.206;13.316;2023-12-20T09:33:43;15.33;;;2.57;;
10659;SDS011;5378;53.206;13.316;2023-12-20T09:36:30;9.63;;;2.80;;
10659;SDS011;5378;53.206;13.316;2023-12-20T09:39:22;5.90;;;2.33;;
10659;SDS011;5378;53.206;13.316;2023-12-20T09:42:11;5.37;;;2.47;;
10659;SDS011;5378;53.206;13.316;2023-12-20T09:45:00;13.40;;;2.33;;
10659;SDS011;5378;53.206;13.316;2023-12-20T09:47:49;12.50;;;2.37;;
10659;SDS011;5378;53.206;13.316;2023-12-20T09:50:37;11.33;;;1.90;;
10659;SDS011;5378;53.206;13.316;2023-12-20T09:53:24;8.03;;;3.10;;
10659;SDS011;5378;53.206;13.316;2023-12-20T09:56:16;15.07;;;3.70;;
10659;SDS011;5378;53.206;13.316;2023-12-20T09:59:03;9.53;;;2.80;;
10659;SDS011;5378;53.206;13.316;2023-12-20T10:01:50;5.13;;;2.77;;
10659;SDS011;5378;53.206;13.316;2023-12-20T10:04:42;10.60;;;2.70;;
10659;SDS011;5378;53.206;13.316;2023-12-20T10:07:34;16.80;;;3.30;;
10659;SDS011;5378;53.206;13.316;2023-12-20T10:10:21;14.40;;;3.27;;
10659;SDS011;5378;53.206;13.316;2023-12-20T10:13:12;13.03;;;2.80;;
10659;SDS011;5378;53.206;13.316;2023-12-20T10:16:00;10.97;;;1.60;;
10659;SDS011;5378;53.206;13.316;2023-12-20T10:18:48;9.90;;;2.10;;
10659;SDS011;5378;53.206;13.316;2023-12-20T10:21:35;4.73;;;2.50;;
10659;SDS011;5378;53.206;13.316;2023-12-20T10:24:22;17.03;;;2.67;;
10659;SDS011;5378;53.206;13.316;2023-12-20T10:27:10;8.23;;;2.60;;
10659;SDS011;5378;53.206;13.316;2023-12-20T10:29:59;7.90;;;2.87;;
10659;SDS011;5378;53.206;13.316;2023-12-20T10:32:46;10.03;;;2.80;;
10659;SDS011;5378;53.206;13.316;2023-12-20T10:35:34;10.33;;;2.10;;
10659;SDS011;5378;53.206;13.316;2023-12-20T10:38:21;15.67;;;2.57;;
10659;SDS011;5378;53.206;13.316;2023-12-20T10:41:09;6.30;;;1.60;;
10659;SDS011;5378;53.206;13.316;2023-12-20T10:43:58;10.43;;;1.90;;
10659;SDS011;5378;53.206;13.316;2023-12-20T10:46:47;15.27;;;2.30;;
10659;SDS011;5378;53.206;13.316;2023-12-20T10:49:36;12.70;;;1.70;;
10659;SDS011;5378;53.206;13.316;2023-12-20T10:52:25;19.27;;;2.67;;
10659;SDS011;5378;53.206;13.316;2023-12-20T10:55:16;17.37;;;1.83;;
10659;SDS011;5378;53.206;13.316;2023-12-20T10:58:06;18.40;;;2.50;;
10659;SDS011;5378;53.206;13.316;2023-12-20T11:00:56;13.13;;;4.10;;
10659;SDS011;5378;53.206;13.316;2023-12-20T11:03:49;9.30;;;2.90;;
10659;SDS011;5378;53.206;13.316;2023-12-20T11:06:40;18.50;;;4.10;;
10659;SDS011;5378;53.206;13.316;2023-12-20T11:09:33;15.63;;;3.87;;
10659;SDS011;5378;53.206;13.316;2023-12-20T11:12:26;14.43;;;2.83;;
10659;SDS011;5378;53.206;13.316;2023-12-20T11:15:21;14.90;;;2.93;;
10659;SDS011;5378;53.206;13.316;2023-12-20T11:18:08;10.13;;;2.03;;
10659;SDS011;5378;53.206;13.316;2023-12-20T11:20:56;8.10;;;2.27;;
10659;SDS011;5378;53.206;13.316;2023-12-20T11:23:48;13.33;;;1.97;;
10659;SDS011;5378;53.206;13.316;2023-12-20T11:26:35;12.80;;;2.00;;
10659;SDS011;5378;53.206;13.316;2023-12-20T11:29:29;11.93;;;3.60;;
10659;SDS011;5378;53.206;13.316;2023-12-20T11:32:29;9.17;;;2.30;;
10659;SDS011;5378;53.206;13.316;2023-12-20T11:35:17;15.57;;;2.60;;
10659;SDS011;5378;53.206;13.316;2023-12-20T11:38:08;7.17;;;2.10;;
10659;SDS011;5378;53.206;13.316;2023-12-20T11:40:55;7.83;;;2.13;;
10659;SDS011;5378;53.206;13.316;2023-12-20T11:43:43;22.40;;;3.33;;
10659;SDS011;5378;53.206;13.316;2023-12-20T11:46:31;8.53;;;2.10;;
10659;SDS011;5378;53.206;13.316;2023-12-20T11:49:22;7.47;;;1.70;;
10659;SDS011;5378;53.206;13.316;2023-12-20T11:52:11;13.00;;;2.27;;
10659;SDS011;5378;53.206;13.316;2023-12-20T11:55:00;7.60;;;1.17;;
10659;SDS011;5378;53.206;13.316;2023-12-20T11:57:47;9.73;;;1.63;;
10659;SDS011;5378;53.206;13.316;2023-12-20T12:00:34;9.43;;;1.70;;
10659;SDS011;5378;53.206;13.316;2023-12-20T12:03:21;4.00;;;1.37;;
10659;SDS011;5378;53.206;13.316;2023-12-20T12:06:09;3.50;;;1.23;;
10659;SDS011;5378;53.206;13.316;2023-12-20T12:08:57;4.93;;;1.63;;
10659;SDS011;5378;53.206;13.316;2023-12-20T12:11:45;4.00;;;1.03;;
10659;SDS011;5378;53.206;13.316;2023-12-20T12:14:33;6.30;;;1.20;;
10659;SDS011;5378;53.206;13.316;2023-12-20T12:17:21;5.20;;;1.03;;
10659;SDS011;5378;53.206;13.316;2023-12-20T12:20:08;5.80;;;1.03;;
10659;SDS011;5378;53.206;13.316;2023-12-20T12:22:59;1.53;;;0.73;;
10659;SDS011;5378;53.206;13.316;2023-12-20T12:25:46;0.80;;;0.70;;
10659;SDS011;5378;53.206;13.316;2023-12-20T12:28:35;2.10;;;0.83;;
10659;SDS011;5378;53.206;13.316;2023-12-20T12:31:22;3.20;;;0.77;;
10659;SDS011;5378;53.206;13.316;2023-12-20T12:34:13;2.17;;;0.80;;
10659;SDS011;5378;53.206;13.316;2023-12-20T12:37:01;1.80;;;0.90;;
10659;SDS011;5378;53.206;13.316;2023-12-20T12:39:50;10.57;;;1.20;;
10659;SDS011;5378;53.206;13.316;2023-12-20T12:42:39;6.37;;;1.47;;
10659;SDS011;5378;53.206;13.316;2023-12-20T12:45:29;1.50;;;0.93;;
10659;SDS011;5378;53.206;13.316;2023-12-20T12:48:16;2.63;;;1.30;;
10659;SDS011;5378;53.206;13.316;2023-12-20T12:51:03;1.97;;;0.70;;
10659;SDS011;5378;53.206;13.316;2023-12-20T12:53:52;3.10;;;1.07;;
10659;SDS011;5378;53.206;13.316;2023-12-20T12:56:40;5.20;;;0.80;;
10659;SDS011;5378;53.206;13.316;2023-12-20T12:59:27;1.07;;;0.90;;
10659;SDS011;5378;53.206;13.316;2023-12-20T13:02:16;11.90;;;1.50;;
10659;SDS011;5378;53.206;13.316;2023-12-20T13:05:04;4.33;;;1.10;;
10659;SDS011;5378;53.206;13.316;2023-12-20T13:07:52;6.97;;;0.97;;
10659;SDS011;5378;53.206;13.316;2023-12-20T13:10:40;4.93;;;0.83;;
10659;SDS011;5378;53.206;13.316;2023-12-20T13:13:27;2.50;;;0.77;;
10659;SDS011;5378;53.206;13.316;2023-12-20T13:16:14;5.43;;;1.07;;
10659;SDS011;5378;53.206;13.316;2023-12-20T13:19:03;2.30;;;0.77;;
10659;SDS011;5378;53.206;13.316;2023-12-20T13:21:50;2.87;;;0.67;;
10659;SDS011;5378;53.206;13.316;2023-12-20T13:24:38;1.63;;;0.50;;
10659;SDS011;5378;53.206;13.316;2023-12-20T13:27:26;2.30;;;0.80;;
10659;SDS011;5378;53.206;13.316;2023-12-20T13:30:14;8.07;;;0.90;;
10659;SDS011;5378;53.206;13.316;2023-12-20T13:33:02;2.53;;;0.60;;
10659;SDS011;5378;53.206;13.316;2023-12-20T13:35:50;2.27;;;0.80;;
10659;SDS011;5378;53.206;13.316;2023-12-20T13:38:38;2.47;;;0.67;;
10659;SDS011;5378;53.206;13.316;2023-12-20T13:41:26;4.43;;;0.63;;
10659;SDS011;5378;53.206;13.316;2023-12-20T13:44:13;1.93;;;0.47;;
10659;SDS011;5378;53.206;13.316;2023-12-20T13:47:00;2.30;;;0.40;;
10659;SDS011;5378;53.206;13.316;2023-12-20T13:49:48;2.33;;;0.77;;
10659;SDS011;5378;53.206;13.316;2023-12-20T13:52:37;0.77;;;0.50;;
10659;SDS011;5378;53.206;13.316;2023-12-20T13:55:24;1.67;;;0.93;;
10659;SDS011;5378;53.206;13.316;2023-12-20T13:58:13;1.70;;;0.70;;
10659;SDS011;5378;53.206;13.316;2023-12-20T14:01:00;3.43;;;0.90;;
10659;SDS011;5378;53.206;13.316;2023-12-20T14:03:47;10.13;;;1.13;;
10659;SDS011;5378;53.206;13.316;2023-12-20T14:06:34;2.13;;;0.70;;
10659;SDS011;5378;53.206;13.316;2023-12-20T14:09:23;3.40;;;0.70;;
10659;SDS011;5378;53.206;13.316;2023-12-20T14:12:11;2.60;;;0.60;;
10659;SDS011;5378;53.206;13.316;2023-12-20T14:14:58;2.00;;;0.77;;
10659;SDS011;5378;53.206;13.316;2023-12-20T14:17:45;4.20;;;0.70;;
10659;SDS011;5378;53.206;13.316;2023-12-20T14:20:32;3.80;;;0.50;;
10659;SDS011;5378;53.206;13.316;2023-12-20T14:23:20;9.63;;;1.13;;
10659;SDS011;5378;53.206;13.316;2023-12-20T14:26:09;5.77;;;1.53;;
10659;SDS011;5378;53.206;13.316;2023-12-20T14:28:59;1.00;;;0.67;;
10659;SDS011;5378;53.206;13.316;2023-12-20T14:31:46;3.10;;;0.60;;
10659;SDS011;5378;53.206;13.316;2023-12-20T14:34:35;6.00;;;1.07;;
10659;SDS011;5378;53.206;13.316;2023-12-20T14:37:23;1.80;;;1.27;;
10659;SDS011;5378;53.206;13.316;2023-12-20T14:40:11;8.83;;;1.47;;
10659;SDS011;5378;53.206;13.316;2023-12-20T14:43:04;4.30;;;0.97;;
10659;SDS011;5378;53.206;13.316;2023-12-20T14:45:51;6.73;;;0.80;;
10659;SDS011;5378;53.206;13.316;2023-12-20T14:48:39;4.10;;;0.83;;
10659;SDS011;5378;53.206;13.316;2023-12-20T14:51:26;3.90;;;0.90;;
10659;SDS011;5378;53.206;13.316;2023-12-20T14:54:13;5.43;;;1.03;;
10659;SDS011;5378;53.206;13.316;2023-12-20T14:57:00;16.70;;;1.10;;
10659;SDS011;5378;53.206;13.316;2023-12-20T14:59:48;13.33;;;0.90;;
10659;SDS011;5378;53.206;13.316;2023-12-20T15:02:35;4.10;;;0.90;;
10659;SDS011;5378;53.206;13.316;2023-12-20T15:05:23;7.67;;;1.20;;
10659;SDS011;5378;53.206;13.316;2023-12-20T15:08:10;12.00;;;0.90;;
10659;SDS011;5378;53.206;13.316;2023-12-20T15:10:57;9.73;;;1.03;;
10659;SDS011;5378;53.206;13.316;2023-12-20T15:13:44;9.77;;;1.20;;
10659;SDS011;5378;53.206;13.316;2023-12-20T15:16:36;3.90;;;1.13;;
10659;SDS011;5378;53.206;13.316;2023-12-20T15:19:23;5.33;;;1.40;;
10659;SDS011;5378;53.206;13.316;2023-12-20T15:22:11;9.30;;;1.20;;
10659;SDS011;5378;53.206;13.316;2023-12-20T15:24:58;8.23;;;1.40;;
10659;SDS011;5378;53.206;13.316;2023-12-20T15:27:46;2.80;;;0.70;;
10659;SDS011;5378;53.206;13.316;2023-12-20T15:30:38;3.70;;;1.13;;
10659;SDS011;5378;53.206;13.316;2023-12-20T15:33:27;15.13;;;1.33;;
10659;SDS011;5378;53.206;13.316;2023-12-20T15:36:14;8.30;;;1.33;;
10659;SDS011;5378;53.206;13.316;2023-12-20T15:39:01;13.03;;;1.90;;
10659;SDS011;5378;53.206;13.316;2023-12-20T15:41:49;8.90;;;1.30;;
10659;SDS011;5378;53.206;13.316;2023-12-20T15:44:37;15.73;;;1.57;;
10659;SDS011;5378;53.206;13.316;2023-12-20T15:47:24;8.57;;;1.80;;
10659;SDS011;5378;53.206;13.316;2023-12-20T15:50:12;5.20;;;1.07;;
10659;SDS011;5378;53.206;13.316;2023-12-20T15:53:00;20.23;;;1.50;;
10659;SDS011;5378;53.206;13.316;2023-12-20T15:55:49;6.67;;;1.57;;
10659;SDS011;5378;53.206;13.316;2023-12-20T15:58:37;6.13;;;1.10;;
10659;SDS011;5378;53.206;13.316;2023-12-20T16:01:24;16.00;;;1.13;;
10659;SDS011;5378;53.206;13.316;2023-12-20T16:04:11;8.27;;;1.60;;
10659;SDS011;5378;53.206;13.316;2023-12-20T16:06:59;2.00;;;0.80;;
10659;SDS011;5378;53.206;13.316;2023-12-20T16:09:46;7.30;;;1.50;;
10659;SDS011;5378;53.206;13.316;2023-12-20T16:12:33;2.97;;;1.17;;
10659;SDS011;5378;53.206;13.316;2023-12-20T16:15:21;3.97;;;0.90;;
10659;SDS011;5378;53.206;13.316;2023-12-20T16:18:08;3.33;;;1.10;;
10659;SDS011;5378;53.206;13.316;2023-12-20T16:20:56;9.83;;;1.47;;
10659;SDS011;5378;53.206;13.316;2023-12-20T16:23:45;8.73;;;1.30;;
10659;SDS011;5378;53.206;13.316;2023-12-20T16:26:33;9.83;;;1.57;;
10659;SDS011;5378;53.206;13.316;2023-12-20T16:29:20;7.37;;;1.10;;
10659;SDS011;5378;53.206;13.316;2023-12-20T16:32:07;2.60;;;1.67;;
10659;SDS011;5378;53.206;13.316;2023-12-20T16:34:54;6.53;;;2.07;;
10659;SDS011;5378;53.206;13.316;2023-12-20T16:37:42;6.90;;;1.27;;
10659;SDS011;5378;53.206;13.316;2023-12-20T16:40:31;13.43;;;1.50;;
10659;SDS011;5378;53.206;13.316;2023-12-20T16:43:18;8.73;;;1.77;;
10659;SDS011;5378;53.206;13.316;2023-12-20T16:46:05;9.83;;;1.77;;
10659;SDS011;5378;53.206;13.316;2023-12-20T16:48:53;15.27;;;2.10;;